Time;durP1;ratioP1;P1;durP2;ratioP2;P2;SDS_P1;SDS_P2;PMS_P1;PMS_P2;Temp;Humidity;BMP_temperature;BMP_pressure;BME280_temperature;BME280_humidity;BME280_pressure;Samples;Min_cycle;Max_cycle;Signal;HPM_P1;HPM_P2
2021/08/23 00:00:34;;;;;;;25.10;16.13;;;;;;;;;;5093011;28;20523;-75
2021/08/23 00:03:01;;;;;;;22.83;16.00;;;;;;;;;;5092923;28;20540;-74
2021/08/23 00:05:28;;;;;;;22.10;17.57;;;;;;;;;;5093254;28;20531;-75
2021/08/23 00:07:55;;;;;;;17.90;16.00;;;;;;;;;;5092206;28;20440;-75
2021/08/23 00:10:24;;;;;;;19.70;15.17;;;;;;;;;;5091840;28;20454;-75
2021/08/23 00:12:51;;;;;;;17.90;15.47;;;;;;;;;;5092938;28;20476;-75
2021/08/23 00:15:18;;;;;;;20.17;15.70;;;;;;;;;;5093239;28;20445;-76
2021/08/23 00:17:45;;;;;;;21.57;17.13;;;;;;;;;;5095159;28;20443;-76
2021/08/23 00:20:16;;;;;;;21.20;17.53;;;;;;;;;;5096712;28;20440;-76
2021/08/23 00:22:48;;;;;;;21.30;17.73;;;;;;;;;;5096528;28;21009;-74
2021/08/23 00:25:15;;;;;;;21.23;16.90;;;;;;;;;;5096721;28;20938;-75
2021/08/23 00:27:44;;;;;;;21.73;19.20;;;;;;;;;;5086564;28;20457;-73
2021/08/23 00:30:12;;;;;;;21.93;18.37;;;;;;;;;;5075886;28;20957;-75
2021/08/23 00:32:39;;;;;;;23.87;18.50;;;;;;;;;;5076392;28;20569;-74
2021/08/23 00:35:07;;;;;;;19.90;17.70;;;;;;;;;;5075850;28;20487;-75
2021/08/23 00:37:34;;;;;;;24.03;18.90;;;;;;;;;;5076321;28;20457;-74
2021/08/23 00:40:02;;;;;;;23.90;18.27;;;;;;;;;;5076303;28;20534;-75
2021/08/23 00:42:29;;;;;;;23.73;19.40;;;;;;;;;;5076249;28;20439;-74
2021/08/23 00:44:58;;;;;;;23.40;19.20;;;;;;;;;;5075936;28;20436;-75
2021/08/23 00:47:25;;;;;;;19.60;17.60;;;;;;;;;;5076040;28;20454;-75
2021/08/23 00:49:52;;;;;;;23.17;17.50;;;;;;;;;;5075948;28;20528;-75
2021/08/23 00:52:19;;;;;;;25.37;19.07;;;;;;;;;;5076142;28;20524;-74
2021/08/23 00:54:47;;;;;;;20.07;17.90;;;;;;;;;;5075750;28;20446;-75
2021/08/23 00:57:14;;;;;;;24.17;19.50;;;;;;;;;;5075716;28;20439;-75
2021/08/23 00:59:43;;;;;;;24.83;19.10;;;;;;;;;;5073899;28;20935;-75
2021/08/23 01:02:15;;;;;;;19.77;17.67;;;;;;;;;;5075759;28;20452;-74
2021/08/23 01:04:49;;;;;;;23.07;18.70;;;;;;;;;;5076687;28;20481;-75
2021/08/23 01:07:18;;;;;;;25.17;18.80;;;;;;;;;;5076333;28;20433;-74
2021/08/23 01:09:48;;;;;;;24.87;20.00;;;;;;;;;;5075812;28;20445;-75
2021/08/23 01:12:16;;;;;;;22.50;19.03;;;;;;;;;;5075441;28;20429;-74
2021/08/23 01:14:43;;;;;;;21.93;19.30;;;;;;;;;;5075514;28;20985;-75
2021/08/23 01:17:10;;;;;;;22.43;18.53;;;;;;;;;;5075608;28;20443;-75
2021/08/23 01:19:40;;;;;;;21.93;17.90;;;;;;;;;;5075111;28;20451;-75
2021/08/23 01:22:08;;;;;;;20.70;18.47;;;;;;;;;;5075145;28;20446;-74
2021/08/23 01:24:36;;;;;;;22.60;20.10;;;;;;;;;;5075589;28;20453;-75
2021/08/23 01:27:05;;;;;;;26.57;20.57;;;;;;;;;;5075483;28;20454;-74
2021/08/23 01:29:37;;;;;;;25.53;19.23;;;;;;;;;;5074508;28;20430;-75
2021/08/23 01:32:09;;;;;;;24.90;20.00;;;;;;;;;;5074110;28;20440;-73
2021/08/23 01:34:37;;;;;;;21.20;18.57;;;;;;;;;;5074926;28;20477;-76
2021/08/23 01:37:05;;;;;;;22.27;19.60;;;;;;;;;;5075004;28;20800;-75
2021/08/23 01:39:32;;;;;;;23.30;18.70;;;;;;;;;;5075106;28;20830;-75
2021/08/23 01:41:59;;;;;;;25.43;20.77;;;;;;;;;;5075760;28;20442;-75
2021/08/23 01:44:27;;;;;;;22.23;19.10;;;;;;;;;;5074994;28;20957;-75
2021/08/23 01:46:54;;;;;;;23.47;18.90;;;;;;;;;;5075436;28;20442;-75
2021/08/23 01:49:22;;;;;;;20.83;18.60;;;;;;;;;;5074540;28;20437;-74
2021/08/23 01:51:49;;;;;;;23.00;19.90;;;;;;;;;;5075042;28;20482;-74
2021/08/23 01:54:18;;;;;;;28.50;19.60;;;;;;;;;;5074556;28;21007;-74
2021/08/23 01:56:45;;;;;;;30.13;20.87;;;;;;;;;;5074930;28;20571;-74
2021/08/23 01:59:12;;;;;;;29.00;21.30;;;;;;;;;;5072776;28;20447;-74
2021/08/23 02:01:40;;;;;;;26.30;20.10;;;;;;;;;;5074789;28;20442;-75
2021/08/23 02:04:07;;;;;;;26.83;21.97;;;;;;;;;;5074548;28;20558;-75
2021/08/23 02:06:36;;;;;;;25.63;20.80;;;;;;;;;;5074332;28;20456;-75
2021/08/23 02:09:04;;;;;;;29.70;22.17;;;;;;;;;;5073387;28;20442;-75
2021/08/23 02:11:31;;;;;;;31.57;20.57;;;;;;;;;;5073182;28;20446;-74
2021/08/23 02:13:59;;;;;;;26.30;22.00;;;;;;;;;;5074173;28;20479;-75
2021/08/23 02:16:26;;;;;;;34.50;20.80;;;;;;;;;;5074486;28;20450;-75
2021/08/23 02:18:53;;;;;;;37.60;21.63;;;;;;;;;;5073961;28;20445;-76
2021/08/23 02:21:21;;;;;;;27.20;20.80;;;;;;;;;;5074097;28;20444;-76
2021/08/23 02:23:50;;;;;;;27.10;21.63;;;;;;;;;;5074096;28;20481;-75
2021/08/23 02:26:17;;;;;;;32.43;21.80;;;;;;;;;;5074589;28;20440;-76
2021/08/23 02:28:45;;;;;;;28.07;20.47;;;;;;;;;;5072676;28;20447;-76
2021/08/23 02:31:12;;;;;;;26.57;20.60;;;;;;;;;;5073725;28;20444;-76
2021/08/23 02:33:39;;;;;;;27.73;21.57;;;;;;;;;;5074320;28;21005;-76
2021/08/23 02:36:06;;;;;;;27.20;21.90;;;;;;;;;;5074099;28;20939;-75
2021/08/23 02:38:33;;;;;;;28.80;23.63;;;;;;;;;;5074097;28;20452;-75
2021/08/23 02:41:02;;;;;;;26.10;21.97;;;;;;;;;;5073206;28;20787;-74
2021/08/23 02:43:29;;;;;;;28.23;21.50;;;;;;;;;;5074010;28;20436;-75
2021/08/23 02:45:56;;;;;;;25.57;20.73;;;;;;;;;;5074028;28;20442;-75
2021/08/23 02:48:23;;;;;;;32.07;22.10;;;;;;;;;;5073618;28;20442;-75
2021/08/23 02:50:50;;;;;;;33.10;21.90;;;;;;;;;;5073342;28;20447;-75
2021/08/23 02:53:18;;;;;;;34.90;22.20;;;;;;;;;;5073472;28;20481;-75
2021/08/23 02:55:45;;;;;;;28.00;21.73;;;;;;;;;;5073521;28;20443;-75
2021/08/23 02:58:13;;;;;;;30.97;21.83;;;;;;;;;;5073746;28;20448;-75
2021/08/23 03:00:40;;;;;;;31.87;23.20;;;;;;;;;;5071380;28;20804;-75
2021/08/23 03:03:08;;;;;;;35.73;22.77;;;;;;;;;;5073791;28;20440;-75
2021/08/23 03:05:35;;;;;;;30.83;22.33;;;;;;;;;;5073820;28;20440;-75
2021/08/23 03:08:02;;;;;;;31.73;22.90;;;;;;;;;;5074057;28;20432;-76
2021/08/23 03:10:29;;;;;;;31.57;22.30;;;;;;;;;;5073381;28;20446;-76
2021/08/23 03:12:56;;;;;;;28.67;22.57;;;;;;;;;;5073331;28;20447;-76
2021/08/23 03:15:25;;;;;;;33.10;21.53;;;;;;;;;;5073443;28;20495;-76
2021/08/23 03:17:52;;;;;;;28.87;21.27;;;;;;;;;;5073582;28;20440;-76
2021/08/23 03:20:20;;;;;;;30.37;22.20;;;;;;;;;;5073464;28;20437;-76
2021/08/23 03:22:47;;;;;;;33.50;24.47;;;;;;;;;;5073580;28;20465;-76
2021/08/23 03:25:14;;;;;;;29.87;22.50;;;;;;;;;;5072531;28;20532;-75
2021/08/23 03:27:41;;;;;;;31.00;22.70;;;;;;;;;;5073447;28;20526;-75
2021/08/23 03:30:09;;;;;;;32.70;22.27;;;;;;;;;;5073174;28;20452;-75
2021/08/23 03:32:37;;;;;;;29.60;21.27;;;;;;;;;;5073119;28;20445;-76
2021/08/23 03:35:05;;;;;;;33.43;22.50;;;;;;;;;;5073214;28;20822;-76
2021/08/23 03:37:32;;;;;;;28.27;21.60;;;;;;;;;;5073052;28;20438;-76
2021/08/23 03:39:59;;;;;;;25.30;20.40;;;;;;;;;;5072752;28;20926;-76
2021/08/23 03:42:27;;;;;;;33.23;23.23;;;;;;;;;;5073725;28;20454;-76
2021/08/23 03:44:54;;;;;;;27.70;20.43;;;;;;;;;;5073961;28;20453;-76
2021/08/23 03:47:22;;;;;;;26.07;20.87;;;;;;;;;;5072998;28;20545;-76
2021/08/23 03:49:52;;;;;;;29.30;21.50;;;;;;;;;;5072897;28;20445;-76
2021/08/23 03:52:19;;;;;;;27.80;21.20;;;;;;;;;;5076161;28;20454;-77
2021/08/23 03:54:46;;;;;;;25.33;20.00;;;;;;;;;;5076650;28;20472;-76
2021/08/23 03:57:13;;;;;;;27.57;22.13;;;;;;;;;;5075379;28;20449;-76
2021/08/23 03:59:40;;;;;;;33.13;23.27;;;;;;;;;;5075690;28;20817;-76
2021/08/23 04:02:08;;;;;;;26.30;20.60;;;;;;;;;;5076738;28;20809;-76
2021/08/23 04:04:35;;;;;;;30.00;21.03;;;;;;;;;;5076594;28;20545;-76
2021/08/23 04:07:04;;;;;;;27.53;21.47;;;;;;;;;;5077071;28;20465;-76
2021/08/23 04:09:31;;;;;;;26.47;20.53;;;;;;;;;;5075905;28;20938;-76
2021/08/23 04:11:58;;;;;;;26.10;21.83;;;;;;;;;;5075641;28;20444;-76
2021/08/23 04:14:25;;;;;;;28.20;22.70;;;;;;;;;;5075850;28;20831;-74
2021/08/23 04:16:52;;;;;;;28.57;22.60;;;;;;;;;;5077075;28;20442;-77
2021/08/23 04:19:20;;;;;;;26.60;21.30;;;;;;;;;;5076933;28;20534;-77
2021/08/23 04:21:47;;;;;;;33.13;21.73;;;;;;;;;;5076273;28;20447;-76
2021/08/23 04:24:15;;;;;;;33.60;22.90;;;;;;;;;;5077054;28;20975;-71
2021/08/23 04:26:43;;;;;;;22.97;19.53;;;;;;;;;;5075993;28;20442;-71
2021/08/23 04:29:10;;;;;;;24.83;20.67;;;;;;;;;;5075497;28;20473;-71
2021/08/23 04:31:38;;;;;;;25.00;18.97;;;;;;;;;;5074985;28;20926;-71
2021/08/23 04:34:05;;;;;;;23.97;19.27;;;;;;;;;;5074201;28;21008;-71
2021/08/23 04:36:32;;;;;;;25.00;19.30;;;;;;;;;;5076280;28;20468;-71
2021/08/23 04:38:59;;;;;;;24.63;18.60;;;;;;;;;;5076113;28;20490;-71
2021/08/23 04:41:28;;;;;;;19.97;17.60;;;;;;;;;;5075821;28;20992;-71
2021/08/23 04:43:55;;;;;;;24.10;18.40;;;;;;;;;;5076247;28;20535;-71
2021/08/23 04:46:23;;;;;;;23.63;17.20;;;;;;;;;;5075903;28;20444;-70
2021/08/23 04:48:52;;;;;;;21.33;17.40;;;;;;;;;;5076895;28;20449;-70
2021/08/23 04:51:19;;;;;;;26.60;17.77;;;;;;;;;;5075697;28;20441;-70
2021/08/23 04:53:46;;;;;;;22.30;19.17;;;;;;;;;;5075705;28;20449;-71
2021/08/23 04:56:14;;;;;;;23.73;20.73;;;;;;;;;;5075515;28;20453;-71
2021/08/23 04:58:42;;;;;;;25.30;20.03;;;;;;;;;;5075902;28;20445;-70
2021/08/23 05:01:10;;;;;;;25.10;20.40;;;;;;;;;;5075519;28;20948;-71
2021/08/23 05:03:40;;;;;;;22.47;18.53;;;;;;;;;;5073374;28;20444;-70
2021/08/23 05:06:07;;;;;;;26.17;21.53;;;;;;;;;;5075351;28;20441;-71
2021/08/23 05:08:34;;;;;;;26.33;21.23;;;;;;;;;;5075800;28;20497;-71
2021/08/23 05:11:02;;;;;;;21.80;19.53;;;;;;;;;;5075256;28;20527;-70
2021/08/23 05:13:29;;;;;;;22.87;20.47;;;;;;;;;;5075851;28;20498;-71
2021/08/23 05:15:57;;;;;;;26.53;19.17;;;;;;;;;;5075416;28;20476;-71
2021/08/23 05:18:25;;;;;;;24.77;19.03;;;;;;;;;;5075241;28;20448;-71
2021/08/23 05:20:52;;;;;;;24.23;17.30;;;;;;;;;;5075636;28;20867;-70
2021/08/23 05:23:19;;;;;;;23.07;20.23;;;;;;;;;;5076109;28;20568;-70
2021/08/23 05:25:47;;;;;;;24.70;18.70;;;;;;;;;;5075101;28;20453;-70
2021/08/23 05:28:14;;;;;;;21.67;17.43;;;;;;;;;;5075525;28;20449;-71
2021/08/23 05:30:41;;;;;;;22.73;18.10;;;;;;;;;;5075512;28;20440;-70
2021/08/23 05:33:09;;;;;;;23.10;19.40;;;;;;;;;;5075074;28;20453;-70
2021/08/23 05:35:37;;;;;;;24.37;20.87;;;;;;;;;;5075147;28;21085;-69
2021/08/23 05:38:04;;;;;;;20.73;18.27;;;;;;;;;;5075089;28;20437;-69
2021/08/23 05:40:32;;;;;;;22.13;19.77;;;;;;;;;;5074802;28;20935;-69
2021/08/23 05:43:01;;;;;;;22.43;19.87;;;;;;;;;;5075555;28;20446;-69
2021/08/23 05:45:29;;;;;;;21.90;19.57;;;;;;;;;;5074964;28;20444;-69
2021/08/23 05:47:56;;;;;;;26.33;20.13;;;;;;;;;;5074671;28;20449;-69
2021/08/23 05:50:24;;;;;;;30.37;18.87;;;;;;;;;;5075013;28;20441;-69
2021/08/23 05:52:51;;;;;;;23.77;20.20;;;;;;;;;;5074924;28;20442;-70
2021/08/23 05:55:19;;;;;;;23.90;19.37;;;;;;;;;;5074875;28;20481;-69
2021/08/23 05:57:46;;;;;;;22.33;20.03;;;;;;;;;;5075047;28;20482;-69
2021/08/23 06:00:17;;;;;;;24.20;19.90;;;;;;;;;;5074751;28;20442;-69
2021/08/23 06:02:44;;;;;;;24.57;20.80;;;;;;;;;;5074500;28;20538;-70
2021/08/23 06:05:12;;;;;;;24.30;20.63;;;;;;;;;;5074749;28;20810;-69
2021/08/23 06:07:40;;;;;;;22.53;20.17;;;;;;;;;;5075077;28;20500;-69
2021/08/23 06:10:08;;;;;;;30.33;21.00;;;;;;;;;;5074913;28;20797;-69
2021/08/23 06:12:35;;;;;;;26.07;21.53;;;;;;;;;;5075361;28;20444;-70
2021/08/23 06:15:02;;;;;;;23.53;20.60;;;;;;;;;;5073350;28;20486;-71
2021/08/23 06:17:29;;;;;;;27.40;21.43;;;;;;;;;;5074856;28;20527;-70
2021/08/23 06:19:57;;;;;;;26.67;21.43;;;;;;;;;;5075263;28;20531;-69
2021/08/23 06:22:24;;;;;;;22.37;19.80;;;;;;;;;;5074300;28;20479;-70
2021/08/23 06:24:53;;;;;;;24.27;21.63;;;;;;;;;;5074292;28;20803;-70
2021/08/23 06:27:21;;;;;;;24.37;21.53;;;;;;;;;;5074375;28;20442;-70
2021/08/23 06:29:48;;;;;;;28.07;20.30;;;;;;;;;;5074626;28;20858;-70
2021/08/23 06:32:15;;;;;;;26.80;21.70;;;;;;;;;;5074269;28;20804;-70
2021/08/23 06:34:42;;;;;;;25.57;22.50;;;;;;;;;;5074225;28;20487;-70
2021/08/23 06:37:10;;;;;;;27.63;21.50;;;;;;;;;;5074088;28;20861;-70
2021/08/23 06:39:37;;;;;;;26.10;22.27;;;;;;;;;;5074109;28;20434;-70
2021/08/23 06:42:06;;;;;;;25.00;21.40;;;;;;;;;;5074497;28;20442;-70
2021/08/23 06:44:33;;;;;;;27.00;22.33;;;;;;;;;;5074190;28;20861;-70
2021/08/23 06:47:00;;;;;;;31.87;24.50;;;;;;;;;;5073566;28;20452;-70
2021/08/23 06:49:27;;;;;;;24.90;19.27;;;;;;;;;;5074171;28;20791;-70
2021/08/23 06:51:54;;;;;;;28.90;24.53;;;;;;;;;;5074580;28;20532;-70
2021/08/23 06:54:22;;;;;;;26.80;22.53;;;;;;;;;;5073756;28;20542;-70
2021/08/23 06:56:49;;;;;;;30.00;23.17;;;;;;;;;;5073907;28;20491;-70
2021/08/23 06:59:19;;;;;;;25.87;20.90;;;;;;;;;;5073816;28;20465;-69
2021/08/23 07:01:46;;;;;;;28.77;22.63;;;;;;;;;;5073714;28;20447;-69
2021/08/23 07:04:13;;;;;;;27.67;21.27;;;;;;;;;;5074000;28;20800;-70
2021/08/23 07:06:40;;;;;;;30.07;22.30;;;;;;;;;;5074260;28;20777;-70
2021/08/23 07:09:07;;;;;;;31.07;23.57;;;;;;;;;;5073927;28;20440;-70
2021/08/23 07:11:36;;;;;;;27.20;22.17;;;;;;;;;;5073597;28;20441;-69
2021/08/23 07:14:03;;;;;;;29.30;24.37;;;;;;;;;;5073699;28;20446;-70
2021/08/23 07:16:31;;;;;;;29.13;22.60;;;;;;;;;;5073890;28;20479;-70
2021/08/23 07:18:59;;;;;;;27.73;21.80;;;;;;;;;;5073506;28;20442;-70
2021/08/23 07:21:26;;;;;;;33.10;23.40;;;;;;;;;;5073261;28;20477;-70
2021/08/23 07:23:53;;;;;;;29.73;22.37;;;;;;;;;;5073430;28;20478;-70
2021/08/23 07:26:20;;;;;;;29.97;22.53;;;;;;;;;;5073146;28;20450;-70
2021/08/23 07:28:47;;;;;;;26.03;22.30;;;;;;;;;;5073724;28;20448;-70
2021/08/23 07:31:15;;;;;;;27.90;21.80;;;;;;;;;;5074080;28;20531;-70
2021/08/23 07:33:44;;;;;;;26.37;20.70;;;;;;;;;;5073445;28;20855;-71
2021/08/23 07:36:11;;;;;;;26.03;21.37;;;;;;;;;;5073025;28;20503;-70
2021/08/23 07:38:38;;;;;;;24.97;19.80;;;;;;;;;;5073372;28;20447;-70
2021/08/23 07:41:05;;;;;;;25.30;21.70;;;;;;;;;;5073288;28;20452;-70
2021/08/23 07:43:33;;;;;;;26.77;20.47;;;;;;;;;;5072945;28;20950;-70
2021/08/23 07:46:00;;;;;;;26.73;21.80;;;;;;;;;;5072949;28;20497;-69
2021/08/23 07:48:27;;;;;;;25.07;20.03;;;;;;;;;;5073238;28;20529;-70
2021/08/23 07:50:56;;;;;;;22.33;19.80;;;;;;;;;;5073319;28;20540;-70
2021/08/23 07:53:23;;;;;;;25.63;21.20;;;;;;;;;;5072935;28;20477;-69
2021/08/23 07:55:50;;;;;;;21.20;18.90;;;;;;;;;;5073112;28;20880;-69
2021/08/23 07:58:18;;;;;;;23.70;20.60;;;;;;;;;;5073156;28;20471;-69
2021/08/23 08:00:45;;;;;;;22.87;18.23;;;;;;;;;;5072770;28;20480;-69
2021/08/23 08:03:12;;;;;;;21.60;18.63;;;;;;;;;;5073037;28;20449;-70
2021/08/23 08:05:39;;;;;;;24.63;18.37;;;;;;;;;;5073077;28;20526;-70
2021/08/23 08:08:09;;;;;;;21.37;17.60;;;;;;;;;;5073112;28;20479;-70
2021/08/23 08:10:36;;;;;;;28.63;21.10;;;;;;;;;;5072941;28;20449;-69
2021/08/23 08:13:04;;;;;;;21.43;17.90;;;;;;;;;;5072721;28;20932;-69
2021/08/23 08:15:31;;;;;;;19.00;17.10;;;;;;;;;;5073038;28;20479;-69
2021/08/23 08:17:59;;;;;;;21.87;17.43;;;;;;;;;;5072603;28;20454;-70
2021/08/23 08:20:26;;;;;;;21.00;18.20;;;;;;;;;;5072878;28;20461;-69
2021/08/23 08:22:53;;;;;;;21.67;18.10;;;;;;;;;;5072946;28;20481;-69
2021/08/23 08:25:22;;;;;;;21.80;16.90;;;;;;;;;;5073154;28;20457;-69
2021/08/23 08:27:49;;;;;;;23.23;19.40;;;;;;;;;;5073201;28;20549;-69
2021/08/23 08:30:17;;;;;;;18.83;16.63;;;;;;;;;;5072881;28;20467;-69
2021/08/23 08:32:44;;;;;;;19.23;17.00;;;;;;;;;;5072960;28;20446;-69
2021/08/23 08:35:12;;;;;;;23.13;18.13;;;;;;;;;;5072387;28;20986;-70
2021/08/23 08:37:39;;;;;;;20.63;17.50;;;;;;;;;;5073244;28;20882;-69
2021/08/23 08:40:07;;;;;;;19.23;17.10;;;;;;;;;;5076510;28;20473;-69
2021/08/23 08:42:36;;;;;;;22.97;16.90;;;;;;;;;;5076525;28;20530;-69
2021/08/23 08:45:03;;;;;;;18.30;15.93;;;;;;;;;;5076286;28;20530;-69
2021/08/23 08:47:31;;;;;;;18.47;16.47;;;;;;;;;;5075943;28;20509;-70
2021/08/23 08:50:00;;;;;;;21.97;16.10;;;;;;;;;;5076155;28;20449;-70
2021/08/23 08:52:28;;;;;;;18.10;15.50;;;;;;;;;;5075879;28;21005;-70
2021/08/23 08:54:55;;;;;;;19.90;14.67;;;;;;;;;;5076045;28;20791;-69
2021/08/23 08:57:22;;;;;;;18.83;16.70;;;;;;;;;;5076122;28;20437;-69
2021/08/23 08:59:51;;;;;;;18.37;15.50;;;;;;;;;;5076040;28;20443;-69
2021/08/23 09:02:19;;;;;;;18.73;16.70;;;;;;;;;;5076028;28;20449;-69
2021/08/23 09:04:46;;;;;;;20.30;16.67;;;;;;;;;;5076101;28;20450;-69
2021/08/23 09:07:14;;;;;;;18.33;16.23;;;;;;;;;;5076406;28;20454;-70
2021/08/23 09:09:42;;;;;;;16.60;14.57;;;;;;;;;;5075496;28;20445;-70
2021/08/23 09:12:10;;;;;;;25.37;15.10;;;;;;;;;;5075835;28;20458;-69
2021/08/23 09:14:40;;;;;;;17.30;14.80;;;;;;;;;;5075820;28;20455;-69
2021/08/23 09:17:10;;;;;;;18.67;15.10;;;;;;;;;;5076194;28;20964;-71
2021/08/23 09:19:39;;;;;;;20.13;14.80;;;;;;;;;;5076201;28;20439;-70
2021/08/23 09:22:07;;;;;;;13.97;12.57;;;;;;;;;;5075799;28;20442;-69
2021/08/23 09:24:35;;;;;;;16.60;13.80;;;;;;;;;;5075356;28;20445;-69
2021/08/23 09:27:06;;;;;;;15.73;13.83;;;;;;;;;;5075277;28;20449;-70
2021/08/23 09:29:36;;;;;;;13.80;12.40;;;;;;;;;;5075878;28;20420;-69
2021/08/23 09:32:04;;;;;;;16.37;12.63;;;;;;;;;;5075486;28;20455;-69
2021/08/23 09:34:32;;;;;;;14.20;12.07;;;;;;;;;;5075114;28;20450;-69
2021/08/23 09:37:05;;;;;;;13.30;11.67;;;;;;;;;;5074948;28;20569;-69
2021/08/23 09:39:32;;;;;;;14.10;12.60;;;;;;;;;;5075362;28;20474;-69
2021/08/23 09:42:06;;;;;;;13.80;11.90;;;;;;;;;;5075409;28;20506;-69
2021/08/23 09:44:37;;;;;;;13.07;11.77;;;;;;;;;;5074847;28;20442;-69
2021/08/23 09:47:05;;;;;;;12.23;11.10;;;;;;;;;;5075233;28;20443;-70
2021/08/23 09:49:37;;;;;;;12.87;11.70;;;;;;;;;;5075263;28;20439;-70
2021/08/23 09:52:04;;;;;;;13.80;12.40;;;;;;;;;;5075362;28;20484;-70
2021/08/23 09:54:32;;;;;;;14.20;12.60;;;;;;;;;;5075264;28;20538;-69
2021/08/23 09:56:59;;;;;;;13.80;12.27;;;;;;;;;;5075061;28;20487;-69
2021/08/23 09:59:27;;;;;;;15.30;13.90;;;;;;;;;;5074872;28;20436;-70
2021/08/23 10:01:55;;;;;;;16.10;14.30;;;;;;;;;;5074540;28;20440;-70
2021/08/23 10:04:22;;;;;;;15.70;14.20;;;;;;;;;;5075134;28;20441;-69
2021/08/23 10:06:52;;;;;;;16.37;14.60;;;;;;;;;;5075018;28;20787;-69
2021/08/23 10:09:19;;;;;;;16.83;14.80;;;;;;;;;;5074444;28;20439;-69
2021/08/23 10:11:47;;;;;;;15.73;14.17;;;;;;;;;;5074497;28;20477;-70
2021/08/23 10:14:14;;;;;;;15.47;14.03;;;;;;;;;;5074891;28;20432;-70
2021/08/23 10:16:42;;;;;;;19.57;14.07;;;;;;;;;;5074643;28;20989;-70
2021/08/23 10:19:09;;;;;;;13.37;11.80;;;;;;;;;;5074910;28;20433;-70
2021/08/23 10:21:37;;;;;;;15.03;13.63;;;;;;;;;;5074531;28;20831;-69
2021/08/23 10:24:07;;;;;;;13.63;12.23;;;;;;;;;;5074198;28;20468;-70
2021/08/23 10:26:41;;;;;;;17.53;12.80;;;;;;;;;;5074308;28;20447;-69
2021/08/23 10:29:10;;;;;;;16.63;13.13;;;;;;;;;;5074679;28;20496;-69
2021/08/23 10:31:38;;;;;;;14.60;13.00;;;;;;;;;;5074003;28;20445;-69
2021/08/23 10:34:12;;;;;;;13.80;11.83;;;;;;;;;;5074652;28;20543;-70
2021/08/23 10:36:39;;;;;;;13.73;12.43;;;;;;;;;;5074829;28;20470;-70
2021/08/23 10:39:08;;;;;;;15.70;12.43;;;;;;;;;;5075005;28;20441;-70
2021/08/23 10:41:35;;;;;;;14.50;12.60;;;;;;;;;;5073722;28;20532;-70
2021/08/23 10:44:05;;;;;;;13.23;12.13;;;;;;;;;;5074412;28;20499;-70
2021/08/23 10:46:33;;;;;;;14.20;13.10;;;;;;;;;;5073923;28;20454;-70
2021/08/23 10:49:01;;;;;;;18.00;12.47;;;;;;;;;;5074052;28;20533;-70
2021/08/23 10:51:33;;;;;;;15.60;13.53;;;;;;;;;;5073886;28;20452;-70
2021/08/23 10:54:00;;;;;;;14.30;13.00;;;;;;;;;;5073584;28;20447;-69
2021/08/23 10:56:36;;;;;;;15.80;13.17;;;;;;;;;;5073446;28;20476;-69
2021/08/23 10:59:13;;;;;;;13.33;12.13;;;;;;;;;;5074111;28;20432;-70
2021/08/23 11:01:41;;;;;;;13.30;12.10;;;;;;;;;;5073465;28;20443;-70
2021/08/23 11:04:09;;;;;;;12.23;10.60;;;;;;;;;;5073339;28;20483;-69
2021/08/23 11:06:37;;;;;;;12.90;11.73;;;;;;;;;;5073600;28;20451;-69
2021/08/23 11:09:09;;;;;;;13.53;12.30;;;;;;;;;;5073697;28;20810;-70
2021/08/23 11:11:38;;;;;;;13.37;12.17;;;;;;;;;;5073808;28;20498;-71
2021/08/23 11:14:16;;;;;;;14.30;11.60;;;;;;;;;;5073203;28;20451;-71
2021/08/23 11:16:43;;;;;;;11.37;10.47;;;;;;;;;;5073765;28;20470;-70
2021/08/23 11:19:11;;;;;;;12.93;11.70;;;;;;;;;;5073231;28;20443;-70
2021/08/23 11:21:40;;;;;;;12.93;11.63;;;;;;;;;;5073645;28;20456;-71
2021/08/23 11:24:08;;;;;;;12.60;11.27;;;;;;;;;;5073318;28;20524;-70
2021/08/23 11:26:35;;;;;;;13.20;11.90;;;;;;;;;;5073538;28;20796;-70
2021/08/23 11:29:10;;;;;;;11.73;10.60;;;;;;;;;;5073494;28;20454;-70
2021/08/23 11:31:37;;;;;;;11.77;10.63;;;;;;;;;;5073146;28;20497;-70
2021/08/23 11:34:05;;;;;;;13.20;10.90;;;;;;;;;;5072991;28;20444;-70
2021/08/23 11:36:35;;;;;;;13.00;10.40;;;;;;;;;;5073254;28;20857;-70
2021/08/23 11:39:11;;;;;;;10.57;9.67;;;;;;;;;;5073240;28;20428;-68
2021/08/23 11:41:38;;;;;;;10.00;9.17;;;;;;;;;;5073443;28;20834;-68
2021/08/23 11:44:06;;;;;;;15.07;9.90;;;;;;;;;;5073035;28;20440;-69
2021/08/23 11:46:35;;;;;;;9.50;8.70;;;;;;;;;;5072927;28;20447;-68
2021/08/23 11:49:02;;;;;;;10.33;8.00;;;;;;;;;;5073242;28;20797;-69
2021/08/23 11:51:30;;;;;;;13.60;8.77;;;;;;;;;;5073198;28;20531;-68
2021/08/23 11:53:57;;;;;;;9.43;8.43;;;;;;;;;;5073185;28;20440;-69
2021/08/23 11:56:24;;;;;;;10.17;7.77;;;;;;;;;;5072775;28;20523;-69
2021/08/23 11:58:51;;;;;;;8.17;6.67;;;;;;;;;;5073350;28;20440;-68
2021/08/23 12:01:19;;;;;;;7.13;6.30;;;;;;;;;;5073200;28;20805;-68
2021/08/23 12:03:47;;;;;;;7.87;6.53;;;;;;;;;;5073497;28;20455;-68
2021/08/23 12:06:16;;;;;;;11.90;7.73;;;;;;;;;;5072744;28;20507;-70
2021/08/23 12:08:44;;;;;;;6.20;5.70;;;;;;;;;;5072662;28;20439;-70
2021/08/23 12:11:12;;;;;;;6.63;5.40;;;;;;;;;;5073027;28;20495;-70
2021/08/23 12:13:40;;;;;;;6.47;5.67;;;;;;;;;;5075030;28;20523;-70
2021/08/23 12:16:08;;;;;;;5.53;4.73;;;;;;;;;;5076764;28;20432;-70
2021/08/23 12:18:36;;;;;;;6.30;4.50;;;;;;;;;;5076432;28;20922;-70
2021/08/23 12:21:05;;;;;;;5.00;4.50;;;;;;;;;;5076361;28;20436;-70
2021/08/23 12:23:44;;;;;;;4.27;3.97;;;;;;;;;;5076283;28;20475;-71
2021/08/23 12:26:13;;;;;;;7.03;5.83;;;;;;;;;;5076334;28;20910;-70
2021/08/23 12:28:47;;;;;;;4.77;3.83;;;;;;;;;;5076298;28;20476;-70
2021/08/23 12:31:15;;;;;;;9.97;4.93;;;;;;;;;;5076872;28;20443;-70
2021/08/23 12:33:42;;;;;;;7.83;4.50;;;;;;;;;;5076829;28;20553;-70
2021/08/23 12:36:11;;;;;;;6.13;4.20;;;;;;;;;;5076395;28;20440;-71
2021/08/23 12:38:39;;;;;;;4.67;4.27;;;;;;;;;;5076408;28;20467;-70
2021/08/23 12:41:07;;;;;;;4.43;3.77;;;;;;;;;;5076328;28;20448;-70
2021/08/23 12:43:36;;;;;;;4.33;3.87;;;;;;;;;;5076320;28;20832;-71
2021/08/23 12:46:04;;;;;;;5.43;4.27;;;;;;;;;;5076395;28;20446;-70
2021/08/23 12:48:31;;;;;;;5.63;4.50;;;;;;;;;;5076060;28;20451;-71
2021/08/23 12:50:58;;;;;;;5.57;4.20;;;;;;;;;;5075893;28;20439;-68
2021/08/23 12:53:27;;;;;;;4.93;3.60;;;;;;;;;;5076223;28;20511;-68
2021/08/23 12:55:54;;;;;;;5.90;4.00;;;;;;;;;;5076205;28;20811;-69
2021/08/23 12:58:21;;;;;;;5.07;3.63;;;;;;;;;;5076516;28;20486;-69
2021/08/23 13:00:52;;;;;;;6.93;4.70;;;;;;;;;;5076388;28;20441;-69
2021/08/23 13:03:19;;;;;;;3.87;3.50;;;;;;;;;;5075774;28;20485;-69
2021/08/23 13:05:46;;;;;;;6.50;4.60;;;;;;;;;;5075817;28;20527;-69
2021/08/23 13:08:13;;;;;;;4.30;3.60;;;;;;;;;;5075084;28;20782;-69
2021/08/23 13:10:44;;;;;;;5.17;4.10;;;;;;;;;;5075660;28;20437;-69
2021/08/23 13:13:12;;;;;;;3.57;3.27;;;;;;;;;;5075665;28;20433;-69
2021/08/23 13:15:39;;;;;;;5.70;3.63;;;;;;;;;;5075452;28;20818;-69
2021/08/23 13:18:07;;;;;;;5.07;3.63;;;;;;;;;;5075732;28;20504;-69
2021/08/23 13:20:36;;;;;;;5.00;4.17;;;;;;;;;;5075574;28;20443;-69
2021/08/23 13:23:04;;;;;;;4.57;4.13;;;;;;;;;;5075320;28;20576;-69
2021/08/23 13:25:31;;;;;;;5.53;4.80;;;;;;;;;;5074950;28;20984;-69
2021/08/23 13:28:01;;;;;;;6.23;4.80;;;;;;;;;;5074888;28;20433;-69
2021/08/23 13:30:28;;;;;;;5.40;4.73;;;;;;;;;;5075365;28;20445;-69
2021/08/23 13:32:56;;;;;;;5.87;4.40;;;;;;;;;;5075284;28;20452;-69
2021/08/23 13:35:23;;;;;;;4.97;4.50;;;;;;;;;;5074305;28;20532;-69
2021/08/23 13:37:50;;;;;;;5.83;4.10;;;;;;;;;;5075707;28;20488;-69
2021/08/23 13:40:17;;;;;;;4.33;3.93;;;;;;;;;;5074899;28;20443;-69
2021/08/23 13:42:45;;;;;;;5.43;4.60;;;;;;;;;;5075238;28;20453;-69
2021/08/23 13:45:13;;;;;;;6.13;4.10;;;;;;;;;;5074179;28;20962;-69
2021/08/23 13:47:40;;;;;;;10.27;3.90;;;;;;;;;;5074821;28;20898;-69
2021/08/23 13:50:08;;;;;;;4.57;4.13;;;;;;;;;;5074277;28;20538;-69
2021/08/23 13:52:35;;;;;;;4.70;4.30;;;;;;;;;;5074594;28;20451;-69
2021/08/23 13:55:02;;;;;;;3.97;3.67;;;;;;;;;;5074608;28;20695;-69
2021/08/23 13:57:33;;;;;;;5.30;4.57;;;;;;;;;;5074393;28;20488;-69
2021/08/23 14:00:00;;;;;;;6.77;5.63;;;;;;;;;;5073987;28;20454;-69
2021/08/23 14:02:29;;;;;;;5.80;5.30;;;;;;;;;;5073660;28;20536;-69
2021/08/23 14:04:56;;;;;;;4.87;4.43;;;;;;;;;;5073561;28;20441;-70
2021/08/23 14:07:24;;;;;;;4.70;4.10;;;;;;;;;;5073208;28;20454;-69
2021/08/23 14:09:51;;;;;;;4.67;4.27;;;;;;;;;;5073227;28;20464;-69
2021/08/23 14:12:18;;;;;;;6.00;4.57;;;;;;;;;;5074122;28;20444;-70
2021/08/23 14:14:45;;;;;;;4.37;3.97;;;;;;;;;;5073489;28;20530;-69
2021/08/23 14:17:12;;;;;;;5.40;4.20;;;;;;;;;;5073763;28;20472;-69
2021/08/23 14:19:41;;;;;;;4.90;3.93;;;;;;;;;;5074163;28;20792;-70
2021/08/23 14:22:09;;;;;;;5.33;4.83;;;;;;;;;;5074693;28;20966;-69
2021/08/23 14:24:36;;;;;;;4.90;4.20;;;;;;;;;;5074414;28;20432;-70